sensor_id;sensor_type;location;lat;lon;timestamp;P1;durP1;ratioP1;P2;durP2;ratioP2
31594;SDS011;18200;48.726;8.892;2023-07-31T00:03:00;6.70;;;2.55;;
31594;SDS011;18200;48.726;8.892;2023-07-31T00:07:00;4.80;;;1.98;;
31594;SDS011;18200;48.726;8.892;2023-07-31T00:11:00;4.90;;;2.13;;
31594;SDS011;18200;48.726;8.892;2023-07-31T00:15:01;6.35;;;2.17;;
31594;SDS011;18200;48.726;8.892;2023-07-31T00:19:02;12.63;;;2.45;;
31594;SDS011;18200;48.726;8.892;2023-07-31T00:23:02;8.00;;;2.22;;
31594;SDS011;18200;48.726;8.892;2023-07-31T00:27:03;7.32;;;2.60;;
31594;SDS011;18200;48.726;8.892;2023-07-31T00:31:04;5.32;;;2.33;;
31594;SDS011;18200;48.726;8.892;2023-07-31T00:35:04;6.68;;;2.47;;
31594;SDS011;18200;48.726;8.892;2023-07-31T00:39:05;6.13;;;2.42;;
31594;SDS011;18200;48.726;8.892;2023-07-31T00:43:05;8.68;;;2.30;;
31594;SDS011;18200;48.726;8.892;2023-07-31T00:47:05;9.13;;;2.13;;
31594;SDS011;18200;48.726;8.892;2023-07-31T00:51:07;5.18;;;2.47;;
31594;SDS011;18200;48.726;8.892;2023-07-31T00:55:08;6.95;;;2.42;;
31594;SDS011;18200;48.726;8.892;2023-07-31T00:59:09;6.45;;;2.70;;
31594;SDS011;18200;48.726;8.892;2023-07-31T01:03:09;9.82;;;2.92;;
31594;SDS011;18200;48.726;8.892;2023-07-31T01:07:12;6.53;;;2.70;;
31594;SDS011;18200;48.726;8.892;2023-07-31T01:11:22;6.43;;;2.65;;
31594;SDS011;18200;48.726;8.892;2023-07-31T01:15:27;9.27;;;3.08;;
31594;SDS011;18200;48.726;8.892;2023-07-31T01:19:27;9.88;;;2.22;;
31594;SDS011;18200;48.726;8.892;2023-07-31T01:27:53;5.30;;;2.10;;
31594;SDS011;18200;48.726;8.892;2023-07-31T01:32:05;5.97;;;2.10;;
31594;SDS011;18200;48.726;8.892;2023-07-31T01:36:07;5.85;;;2.40;;
31594;SDS011;18200;48.726;8.892;2023-07-31T01:40:08;4.93;;;2.25;;
31594;SDS011;18200;48.726;8.892;2023-07-31T01:44:09;6.93;;;2.35;;
31594;SDS011;18200;48.726;8.892;2023-07-31T01:48:09;6.05;;;2.80;;
31594;SDS011;18200;48.726;8.892;2023-07-31T01:52:09;6.97;;;2.63;;
31594;SDS011;18200;48.726;8.892;2023-07-31T01:56:10;6.60;;;2.30;;
31594;SDS011;18200;48.726;8.892;2023-07-31T02:00:11;4.50;;;2.15;;
31594;SDS011;18200;48.726;8.892;2023-07-31T02:04:14;9.15;;;2.80;;
31594;SDS011;18200;48.726;8.892;2023-07-31T02:08:17;5.45;;;2.47;;
31594;SDS011;18200;48.726;8.892;2023-07-31T02:12:17;5.93;;;2.42;;
31594;SDS011;18200;48.726;8.892;2023-07-31T02:16:18;5.90;;;2.47;;
31594;SDS011;18200;48.726;8.892;2023-07-31T02:20:18;6.20;;;2.35;;
31594;SDS011;18200;48.726;8.892;2023-07-31T02:24:18;9.18;;;2.78;;
31594;SDS011;18200;48.726;8.892;2023-07-31T02:28:19;8.98;;;2.70;;
31594;SDS011;18200;48.726;8.892;2023-07-31T02:32:19;6.57;;;2.50;;
31594;SDS011;18200;48.726;8.892;2023-07-31T02:36:19;8.15;;;2.42;;
31594;SDS011;18200;48.726;8.892;2023-07-31T02:40:20;6.68;;;2.63;;
31594;SDS011;18200;48.726;8.892;2023-07-31T02:44:20;13.43;;;9.60;;
31594;SDS011;18200;48.726;8.892;2023-07-31T02:48:21;7.45;;;3.13;;
31594;SDS011;18200;48.726;8.892;2023-07-31T02:52:21;8.63;;;2.58;;
31594;SDS011;18200;48.726;8.892;2023-07-31T02:56:21;9.77;;;2.60;;
31594;SDS011;18200;48.726;8.892;2023-07-31T03:00:22;7.32;;;2.95;;
31594;SDS011;18200;48.726;8.892;2023-07-31T03:04:22;10.70;;;2.53;;
31594;SDS011;18200;48.726;8.892;2023-07-31T03:08:23;6.53;;;2.50;;
31594;SDS011;18200;48.726;8.892;2023-07-31T03:12:24;9.95;;;3.40;;
31594;SDS011;18200;48.726;8.892;2023-07-31T03:16:24;4.72;;;2.42;;
31594;SDS011;18200;48.726;8.892;2023-07-31T03:20:24;9.10;;;2.80;;
31594;SDS011;18200;48.726;8.892;2023-07-31T03:24:25;6.13;;;2.20;;
31594;SDS011;18200;48.726;8.892;2023-07-31T03:28:26;5.25;;;2.25;;
31594;SDS011;18200;48.726;8.892;2023-07-31T03:32:27;6.05;;;2.13;;
31594;SDS011;18200;48.726;8.892;2023-07-31T03:36:27;7.13;;;2.55;;
31594;SDS011;18200;48.726;8.892;2023-07-31T03:40:28;7.90;;;3.17;;
31594;SDS011;18200;48.726;8.892;2023-07-31T03:44:28;5.70;;;2.40;;
31594;SDS011;18200;48.726;8.892;2023-07-31T03:48:28;6.40;;;2.45;;
31594;SDS011;18200;48.726;8.892;2023-07-31T03:52:29;5.55;;;2.47;;
31594;SDS011;18200;48.726;8.892;2023-07-31T03:56:29;6.80;;;2.60;;
31594;SDS011;18200;48.726;8.892;2023-07-31T04:00:29;10.00;;;2.28;;
31594;SDS011;18200;48.726;8.892;2023-07-31T04:04:30;6.50;;;2.40;;
31594;SDS011;18200;48.726;8.892;2023-07-31T04:08:30;5.95;;;2.33;;
31594;SDS011;18200;48.726;8.892;2023-07-31T04:12:31;4.75;;;2.15;;
31594;SDS011;18200;48.726;8.892;2023-07-31T04:16:31;5.63;;;2.20;;
31594;SDS011;18200;48.726;8.892;2023-07-31T04:20:31;9.50;;;2.60;;
31594;SDS011;18200;48.726;8.892;2023-07-31T04:24:32;8.75;;;2.67;;
31594;SDS011;18200;48.726;8.892;2023-07-31T04:28:32;7.82;;;2.28;;
31594;SDS011;18200;48.726;8.892;2023-07-31T04:32:32;7.13;;;2.67;;
31594;SDS011;18200;48.726;8.892;2023-07-31T04:36:34;4.47;;;2.33;;
31594;SDS011;18200;48.726;8.892;2023-07-31T04:40:34;4.75;;;2.60;;
31594;SDS011;18200;48.726;8.892;2023-07-31T04:44:35;11.65;;;3.03;;
31594;SDS011;18200;48.726;8.892;2023-07-31T04:48:35;5.93;;;2.88;;
31594;SDS011;18200;48.726;8.892;2023-07-31T04:52:35;7.50;;;6.00;;
31594;SDS011;18200;48.726;8.892;2023-07-31T04:56:36;6.35;;;2.78;;
31594;SDS011;18200;48.726;8.892;2023-07-31T05:00:36;5.93;;;2.58;;
31594;SDS011;18200;48.726;8.892;2023-07-31T05:04:37;7.45;;;2.80;;
31594;SDS011;18200;48.726;8.892;2023-07-31T05:08:37;6.65;;;2.75;;
31594;SDS011;18200;48.726;8.892;2023-07-31T05:12:37;4.85;;;2.80;;
31594;SDS011;18200;48.726;8.892;2023-07-31T05:16:38;8.32;;;3.33;;
31594;SDS011;18200;48.726;8.892;2023-07-31T05:20:38;4.90;;;2.90;;
31594;SDS011;18200;48.726;8.892;2023-07-31T05:24:38;8.23;;;3.08;;
31594;SDS011;18200;48.726;8.892;2023-07-31T05:28:39;6.43;;;2.20;;
31594;SDS011;18200;48.726;8.892;2023-07-31T05:32:39;6.88;;;2.90;;
31594;SDS011;18200;48.726;8.892;2023-07-31T05:36:39;7.20;;;2.63;;
31594;SDS011;18200;48.726;8.892;2023-07-31T05:40:40;7.82;;;2.67;;
31594;SDS011;18200;48.726;8.892;2023-07-31T05:44:40;12.65;;;2.75;;
31594;SDS011;18200;48.726;8.892;2023-07-31T05:48:40;5.20;;;2.13;;
31594;SDS011;18200;48.726;8.892;2023-07-31T05:52:41;11.10;;;2.50;;
31594;SDS011;18200;48.726;8.892;2023-07-31T05:56:42;3.58;;;2.00;;
31594;SDS011;18200;48.726;8.892;2023-07-31T06:00:42;6.65;;;2.25;;
31594;SDS011;18200;48.726;8.892;2023-07-31T06:04:43;5.85;;;2.03;;
31594;SDS011;18200;48.726;8.892;2023-07-31T06:08:43;5.85;;;2.35;;
31594;SDS011;18200;48.726;8.892;2023-07-31T06:12:43;4.28;;;2.22;;
31594;SDS011;18200;48.726;8.892;2023-07-31T06:16:44;7.32;;;2.13;;
31594;SDS011;18200;48.726;8.892;2023-07-31T06:20:44;5.82;;;2.63;;
31594;SDS011;18200;48.726;8.892;2023-07-31T06:24:46;7.65;;;2.80;;
31594;SDS011;18200;48.726;8.892;2023-07-31T06:28:46;6.75;;;2.42;;
31594;SDS011;18200;48.726;8.892;2023-07-31T06:32:46;5.90;;;2.28;;
31594;SDS011;18200;48.726;8.892;2023-07-31T06:36:47;8.65;;;2.22;;
31594;SDS011;18200;48.726;8.892;2023-07-31T06:40:47;6.03;;;2.10;;
31594;SDS011;18200;48.726;8.892;2023-07-31T06:44:49;13.05;;;1.70;;
31594;SDS011;18200;48.726;8.892;2023-07-31T06:48:49;7.22;;;2.20;;
31594;SDS011;18200;48.726;8.892;2023-07-31T06:52:49;8.95;;;2.08;;
31594;SDS011;18200;48.726;8.892;2023-07-31T06:56:50;5.00;;;2.05;;
31594;SDS011;18200;48.726;8.892;2023-07-31T07:00:50;6.97;;;2.10;;
31594;SDS011;18200;48.726;8.892;2023-07-31T07:04:50;7.47;;;2.17;;
31594;SDS011;18200;48.726;8.892;2023-07-31T07:08:51;7.43;;;2.00;;
31594;SDS011;18200;48.726;8.892;2023-07-31T07:12:51;9.50;;;2.65;;
31594;SDS011;18200;48.726;8.892;2023-07-31T07:16:52;5.78;;;2.63;;
31594;SDS011;18200;48.726;8.892;2023-07-31T07:20:53;7.40;;;2.40;;
31594;SDS011;18200;48.726;8.892;2023-07-31T07:24:54;11.85;;;2.58;;
31594;SDS011;18200;48.726;8.892;2023-07-31T07:28:54;5.95;;;2.38;;
31594;SDS011;18200;48.726;8.892;2023-07-31T07:32:54;7.97;;;2.95;;
31594;SDS011;18200;48.726;8.892;2023-07-31T07:36:55;4.10;;;2.10;;
31594;SDS011;18200;48.726;8.892;2023-07-31T07:40:55;5.28;;;2.15;;
31594;SDS011;18200;48.726;8.892;2023-07-31T07:44:56;6.00;;;2.67;;
31594;SDS011;18200;48.726;8.892;2023-07-31T07:48:56;5.50;;;2.45;;
31594;SDS011;18200;48.726;8.892;2023-07-31T07:52:56;7.53;;;2.13;;
31594;SDS011;18200;48.726;8.892;2023-07-31T07:56:57;7.63;;;2.50;;
31594;SDS011;18200;48.726;8.892;2023-07-31T08:00:58;6.80;;;2.53;;
31594;SDS011;18200;48.726;8.892;2023-07-31T08:04:58;8.35;;;2.38;;
31594;SDS011;18200;48.726;8.892;2023-07-31T08:08:59;7.82;;;2.50;;
31594;SDS011;18200;48.726;8.892;2023-07-31T08:12:59;10.20;;;2.83;;
31594;SDS011;18200;48.726;8.892;2023-07-31T08:17:00;8.10;;;2.15;;
31594;SDS011;18200;48.726;8.892;2023-07-31T08:21:02;8.10;;;2.95;;
31594;SDS011;18200;48.726;8.892;2023-07-31T08:25:03;9.15;;;2.97;;
31594;SDS011;18200;48.726;8.892;2023-07-31T08:29:04;6.75;;;2.88;;
31594;SDS011;18200;48.726;8.892;2023-07-31T08:33:04;9.23;;;2.70;;
31594;SDS011;18200;48.726;8.892;2023-07-31T08:37:05;5.05;;;2.30;;
31594;SDS011;18200;48.726;8.892;2023-07-31T08:41:05;10.40;;;2.78;;
31594;SDS011;18200;48.726;8.892;2023-07-31T08:45:06;8.27;;;2.60;;
31594;SDS011;18200;48.726;8.892;2023-07-31T08:49:07;9.57;;;2.72;;
31594;SDS011;18200;48.726;8.892;2023-07-31T08:53:07;6.05;;;2.67;;
31594;SDS011;18200;48.726;8.892;2023-07-31T08:57:08;6.90;;;2.50;;
31594;SDS011;18200;48.726;8.892;2023-07-31T09:01:10;7.72;;;2.85;;
31594;SDS011;18200;48.726;8.892;2023-07-31T09:05:11;8.65;;;3.05;;
31594;SDS011;18200;48.726;8.892;2023-07-31T09:09:12;7.82;;;2.85;;
31594;SDS011;18200;48.726;8.892;2023-07-31T09:13:13;10.75;;;3.33;;
31594;SDS011;18200;48.726;8.892;2023-07-31T09:17:14;9.93;;;3.13;;
31594;SDS011;18200;48.726;8.892;2023-07-31T09:21:14;9.38;;;2.63;;
31594;SDS011;18200;48.726;8.892;2023-07-31T09:25:15;7.32;;;2.75;;
31594;SDS011;18200;48.726;8.892;2023-07-31T09:29:19;6.97;;;2.78;;
31594;SDS011;18200;48.726;8.892;2023-07-31T09:33:20;11.15;;;3.40;;
31594;SDS011;18200;48.726;8.892;2023-07-31T09:37:20;11.25;;;2.80;;
31594;SDS011;18200;48.726;8.892;2023-07-31T09:41:20;7.53;;;2.58;;
31594;SDS011;18200;48.726;8.892;2023-07-31T09:45:21;7.75;;;2.65;;
31594;SDS011;18200;48.726;8.892;2023-07-31T09:49:22;8.25;;;2.78;;
31594;SDS011;18200;48.726;8.892;2023-07-31T09:53:28;7.38;;;3.13;;
31594;SDS011;18200;48.726;8.892;2023-07-31T09:57:30;5.57;;;2.80;;
31594;SDS011;18200;48.726;8.892;2023-07-31T10:01:31;8.57;;;2.60;;
31594;SDS011;18200;48.726;8.892;2023-07-31T10:05:36;9.10;;;3.42;;
31594;SDS011;18200;48.726;8.892;2023-07-31T10:09:40;6.38;;;2.58;;
31594;SDS011;18200;48.726;8.892;2023-07-31T10:13:40;6.07;;;2.17;;
31594;SDS011;18200;48.726;8.892;2023-07-31T10:17:42;6.82;;;2.80;;
31594;SDS011;18200;48.726;8.892;2023-07-31T10:21:43;7.90;;;2.67;;
31594;SDS011;18200;48.726;8.892;2023-07-31T10:25:45;8.00;;;2.58;;
31594;SDS011;18200;48.726;8.892;2023-07-31T10:29:47;6.35;;;2.80;;
31594;SDS011;18200;48.726;8.892;2023-07-31T10:33:48;9.50;;;3.15;;
31594;SDS011;18200;48.726;8.892;2023-07-31T10:37:49;5.53;;;3.05;;
31594;SDS011;18200;48.726;8.892;2023-07-31T10:41:49;6.70;;;2.83;;
31594;SDS011;18200;48.726;8.892;2023-07-31T10:45:50;11.23;;;2.85;;
31594;SDS011;18200;48.726;8.892;2023-07-31T10:49:50;9.18;;;2.92;;
31594;SDS011;18200;48.726;8.892;2023-07-31T10:53:50;6.60;;;2.78;;
31594;SDS011;18200;48.726;8.892;2023-07-31T10:58:12;6.15;;;2.90;;
31594;SDS011;18200;48.726;8.892;2023-07-31T11:02:25;8.57;;;3.47;;
31594;SDS011;18200;48.726;8.892;2023-07-31T11:06:29;5.82;;;3.03;;
31594;SDS011;18200;48.726;8.892;2023-07-31T11:10:30;9.95;;;3.08;;
31594;SDS011;18200;48.726;8.892;2023-07-31T11:14:30;9.73;;;2.97;;
31594;SDS011;18200;48.726;8.892;2023-07-31T11:18:31;7.97;;;3.40;;
31594;SDS011;18200;48.726;8.892;2023-07-31T11:22:31;6.32;;;2.85;;
31594;SDS011;18200;48.726;8.892;2023-07-31T11:26:31;7.38;;;3.03;;
31594;SDS011;18200;48.726;8.892;2023-07-31T11:30:32;8.40;;;3.22;;
31594;SDS011;18200;48.726;8.892;2023-07-31T11:34:36;8.75;;;3.13;;
31594;SDS011;18200;48.726;8.892;2023-07-31T11:38:51;5.70;;;3.33;;
31594;SDS011;18200;48.726;8.892;2023-07-31T11:42:51;7.90;;;3.13;;
31594;SDS011;18200;48.726;8.892;2023-07-31T11:46:51;8.20;;;3.20;;
31594;SDS011;18200;48.726;8.892;2023-07-31T11:50:52;9.30;;;3.47;;
31594;SDS011;18200;48.726;8.892;2023-07-31T11:54:54;7.05;;;3.40;;
31594;SDS011;18200;48.726;8.892;2023-07-31T11:58:56;9.15;;;3.15;;
31594;SDS011;18200;48.726;8.892;2023-07-31T12:02:58;6.90;;;3.40;;
31594;SDS011;18200;48.726;8.892;2023-07-31T12:07:00;7.40;;;3.40;;
31594;SDS011;18200;48.726;8.892;2023-07-31T12:11:04;7.18;;;3.58;;
31594;SDS011;18200;48.726;8.892;2023-07-31T12:15:14;10.15;;;2.92;;
31594;SDS011;18200;48.726;8.892;2023-07-31T12:19:15;4.95;;;2.88;;
31594;SDS011;18200;48.726;8.892;2023-07-31T12:23:19;6.20;;;2.90;;
31594;SDS011;18200;48.726;8.892;2023-07-31T12:27:32;9.80;;;3.22;;
31594;SDS011;18200;48.726;8.892;2023-07-31T12:31:33;5.30;;;2.63;;
31594;SDS011;18200;48.726;8.892;2023-07-31T12:35:35;8.23;;;2.75;;
31594;SDS011;18200;48.726;8.892;2023-07-31T12:39:36;6.78;;;3.00;;
31594;SDS011;18200;48.726;8.892;2023-07-31T12:43:37;7.50;;;2.83;;
31594;SDS011;18200;48.726;8.892;2023-07-31T12:47:40;6.93;;;2.97;;
31594;SDS011;18200;48.726;8.892;2023-07-31T12:51:40;9.95;;;3.10;;
31594;SDS011;18200;48.726;8.892;2023-07-31T12:55:41;5.60;;;2.55;;
31594;SDS011;18200;48.726;8.892;2023-07-31T12:59:41;7.35;;;2.50;;
31594;SDS011;18200;48.726;8.892;2023-07-31T13:03:41;6.07;;;2.72;;
31594;SDS011;18200;48.726;8.892;2023-07-31T13:07:42;7.47;;;2.65;;
31594;SDS011;18200;48.726;8.892;2023-07-31T13:11:43;9.45;;;3.00;;
31594;SDS011;18200;48.726;8.892;2023-07-31T13:15:43;7.50;;;2.40;;
31594;SDS011;18200;48.726;8.892;2023-07-31T13:19:44;8.05;;;2.70;;
31594;SDS011;18200;48.726;8.892;2023-07-31T13:23:45;5.30;;;2.65;;
31594;SDS011;18200;48.726;8.892;2023-07-31T13:27:45;7.32;;;2.90;;
31594;SDS011;18200;48.726;8.892;2023-07-31T13:31:46;11.55;;;2.53;;
31594;SDS011;18200;48.726;8.892;2023-07-31T13:35:47;6.95;;;3.10;;
31594;SDS011;18200;48.726;8.892;2023-07-31T13:39:48;8.18;;;2.80;;
31594;SDS011;18200;48.726;8.892;2023-07-31T13:43:49;6.85;;;3.70;;
31594;SDS011;18200;48.726;8.892;2023-07-31T13:47:50;6.93;;;3.72;;
31594;SDS011;18200;48.726;8.892;2023-07-31T13:51:51;4.55;;;2.60;;
31594;SDS011;18200;48.726;8.892;2023-07-31T13:55:51;5.35;;;2.92;;
31594;SDS011;18200;48.726;8.892;2023-07-31T13:59:52;7.50;;;3.38;;
31594;SDS011;18200;48.726;8.892;2023-07-31T14:03:53;5.10;;;2.88;;
31594;SDS011;18200;48.726;8.892;2023-07-31T14:07:53;5.28;;;2.80;;
31594;SDS011;18200;48.726;8.892;2023-07-31T14:11:54;6.82;;;2.95;;
31594;SDS011;18200;48.726;8.892;2023-07-31T14:15:55;7.47;;;3.55;;
31594;SDS011;18200;48.726;8.892;2023-07-31T14:19:56;10.05;;;3.20;;
31594;SDS011;18200;48.726;8.892;2023-07-31T14:23:56;6.05;;;2.80;;
31594;SDS011;18200;48.726;8.892;2023-07-31T14:27:57;6.82;;;2.90;;
31594;SDS011;18200;48.726;8.892;2023-07-31T14:31:57;5.97;;;3.35;;
31594;SDS011;18200;48.726;8.892;2023-07-31T14:35:58;7.72;;;3.17;;
31594;SDS011;18200;48.726;8.892;2023-07-31T14:39:58;4.22;;;2.63;;
31594;SDS011;18200;48.726;8.892;2023-07-31T14:43:59;8.93;;;2.63;;
31594;SDS011;18200;48.726;8.892;2023-07-31T14:47:59;5.85;;;2.55;;
31594;SDS011;18200;48.726;8.892;2023-07-31T14:52:00;8.13;;;2.95;;
31594;SDS011;18200;48.726;8.892;2023-07-31T14:56:00;7.20;;;2.88;;
31594;SDS011;18200;48.726;8.892;2023-07-31T15:00:01;8.75;;;2.95;;
31594;SDS011;18200;48.726;8.892;2023-07-31T15:04:01;5.50;;;2.80;;
31594;SDS011;18200;48.726;8.892;2023-07-31T15:08:02;7.57;;;3.20;;
31594;SDS011;18200;48.726;8.892;2023-07-31T15:12:02;5.47;;;2.45;;
31594;SDS011;18200;48.726;8.892;2023-07-31T15:16:03;6.38;;;2.85;;
31594;SDS011;18200;48.726;8.892;2023-07-31T15:20:04;6.38;;;3.10;;
31594;SDS011;18200;48.726;8.892;2023-07-31T15:24:05;6.53;;;2.80;;
31594;SDS011;18200;48.726;8.892;2023-07-31T15:28:06;9.65;;;3.45;;
31594;SDS011;18200;48.726;8.892;2023-07-31T15:32:08;5.82;;;2.65;;
31594;SDS011;18200;48.726;8.892;2023-07-31T15:36:09;5.50;;;2.70;;
31594;SDS011;18200;48.726;8.892;2023-07-31T15:40:09;5.27;;;2.83;;
31594;SDS011;18200;48.726;8.892;2023-07-31T15:44:10;6.63;;;2.70;;
31594;SDS011;18200;48.726;8.892;2023-07-31T15:48:10;6.28;;;3.08;;
31594;SDS011;18200;48.726;8.892;2023-07-31T15:52:11;5.73;;;2.87;;
31594;SDS011;18200;48.726;8.892;2023-07-31T15:56:11;7.75;;;3.45;;
31594;SDS011;18200;48.726;8.892;2023-07-31T16:00:12;6.22;;;2.70;;
31594;SDS011;18200;48.726;8.892;2023-07-31T16:04:12;4.78;;;2.75;;
31594;SDS011;18200;48.726;8.892;2023-07-31T16:08:13;6.65;;;3.08;;
31594;SDS011;18200;48.726;8.892;2023-07-31T16:12:13;6.47;;;3.00;;
31594;SDS011;18200;48.726;8.892;2023-07-31T16:16:13;6.03;;;2.80;;
31594;SDS011;18200;48.726;8.892;2023-07-31T16:20:14;6.57;;;2.88;;
31594;SDS011;18200;48.726;8.892;2023-07-31T16:24:14;4.78;;;2.80;;
31594;SDS011;18200;48.726;8.892;2023-07-31T16:28:16;6.40;;;3.33;;
31594;SDS011;18200;48.726;8.892;2023-07-31T16:32:16;9.82;;;2.95;;
31594;SDS011;18200;48.726;8.892;2023-07-31T16:36:17;6.03;;;2.85;;
31594;SDS011;18200;48.726;8.892;2023-07-31T16:40:19;9.10;;;3.35;;
31594;SDS011;18200;48.726;8.892;2023-07-31T16:44:19;6.88;;;2.88;;
31594;SDS011;18200;48.726;8.892;2023-07-31T16:48:21;7.47;;;3.03;;
31594;SDS011;18200;48.726;8.892;2023-07-31T16:52:21;5.65;;;3.15;;
31594;SDS011;18200;48.726;8.892;2023-07-31T16:56:21;7.00;;;2.95;;
31594;SDS011;18200;48.726;8.892;2023-07-31T17:00:22;8.38;;;3.40;;
31594;SDS011;18200;48.726;8.892;2023-07-31T17:04:22;7.07;;;3.20;;
31594;SDS011;18200;48.726;8.892;2023-07-31T17:08:23;7.93;;;3.03;;
31594;SDS011;18200;48.726;8.892;2023-07-31T17:12:23;7.10;;;3.23;;
31594;SDS011;18200;48.726;8.892;2023-07-31T17:16:23;8.15;;;2.80;;
31594;SDS011;18200;48.726;8.892;2023-07-31T17:20:24;5.65;;;2.95;;
31594;SDS011;18200;48.726;8.892;2023-07-31T17:24:24;8.95;;;3.20;;
31594;SDS011;18200;48.726;8.892;2023-07-31T17:28:25;7.85;;;2.88;;
31594;SDS011;18200;48.726;8.892;2023-07-31T17:32:25;5.32;;;2.88;;
31594;SDS011;18200;48.726;8.892;2023-07-31T17:36:26;8.52;;;3.15;;
31594;SDS011;18200;48.726;8.892;2023-07-31T17:40:26;4.72;;;2.75;;
31594;SDS011;18200;48.726;8.892;2023-07-31T17:44:27;6.03;;;2.88;;
31594;SDS011;18200;48.726;8.892;2023-07-31T17:48:27;7.50;;;3.35;;
31594;SDS011;18200;48.726;8.892;2023-07-31T17:52:27;5.82;;;3.15;;
31594;SDS011;18200;48.726;8.892;2023-07-31T17:56:28;6.83;;;3.43;;
31594;SDS011;18200;48.726;8.892;2023-07-31T18:00:28;8.15;;;3.63;;
31594;SDS011;18200;48.726;8.892;2023-07-31T18:04:29;13.60;;;3.08;;
31594;SDS011;18200;48.726;8.892;2023-07-31T18:08:30;12.23;;;3.10;;
31594;SDS011;18200;48.726;8.892;2023-07-31T18:12:30;6.85;;;2.88;;
31594;SDS011;18200;48.726;8.892;2023-07-31T18:16:30;50.38;;;6.22;;
31594;SDS011;18200;48.726;8.892;2023-07-31T18:20:31;99.68;;;10.75;;
31594;SDS011;18200;48.726;8.892;2023-07-31T18:24:31;106.25;;;10.32;;
31594;SDS011;18200;48.726;8.892;2023-07-31T18:28:31;69.22;;;7.75;;
31594;SDS011;18200;48.726;8.892;2023-07-31T18:32:32;21.88;;;5.07;;
31594;SDS011;18200;48.726;8.892;2023-07-31T18:36:32;10.68;;;3.97;;
31594;SDS011;18200;48.726;8.892;2023-07-31T18:40:35;11.65;;;4.63;;
31594;SDS011;18200;48.726;8.892;2023-07-31T18:44:35;11.68;;;3.90;;
31594;SDS011;18200;48.726;8.892;2023-07-31T18:48:35;11.15;;;3.53;;
31594;SDS011;18200;48.726;8.892;2023-07-31T18:52:36;9.80;;;3.67;;
31594;SDS011;18200;48.726;8.892;2023-07-31T18:56:37;7.93;;;3.45;;
31594;SDS011;18200;48.726;8.892;2023-07-31T19:00:37;8.68;;;3.30;;
31594;SDS011;18200;48.726;8.892;2023-07-31T19:04:38;11.43;;;3.97;;
31594;SDS011;18200;48.726;8.892;2023-07-31T19:08:38;5.85;;;3.67;;
31594;SDS011;18200;48.726;8.892;2023-07-31T19:12:38;9.00;;;3.72;;
31594;SDS011;18200;48.726;8.892;2023-07-31T19:16:39;11.98;;;3.95;;
31594;SDS011;18200;48.726;8.892;2023-07-31T19:20:42;9.98;;;3.70;;
31594;SDS011;18200;48.726;8.892;2023-07-31T19:24:42;9.00;;;3.97;;
31594;SDS011;18200;48.726;8.892;2023-07-31T19:28:42;8.93;;;3.90;;
31594;SDS011;18200;48.726;8.892;2023-07-31T19:32:43;7.00;;;3.60;;
31594;SDS011;18200;48.726;8.892;2023-07-31T19:36:43;8.13;;;3.47;;
31594;SDS011;18200;48.726;8.892;2023-07-31T19:40:44;8.02;;;3.95;;
31594;SDS011;18200;48.726;8.892;2023-07-31T19:44:45;12.23;;;4.22;;
31594;SDS011;18200;48.726;8.892;2023-07-31T19:48:45;8.30;;;3.92;;
31594;SDS011;18200;48.726;8.892;2023-07-31T19:52:45;7.53;;;4.00;;
31594;SDS011;18200;48.726;8.892;2023-07-31T19:56:46;9.98;;;4.20;;
31594;SDS011;18200;48.726;8.892;2023-07-31T20:00:48;8.48;;;3.65;;
31594;SDS011;18200;48.726;8.892;2023-07-31T20:04:48;9.18;;;3.92;;
31594;SDS011;18200;48.726;8.892;2023-07-31T20:08:49;10.73;;;4.32;;
31594;SDS011;18200;48.726;8.892;2023-07-31T20:12:49;10.25;;;3.95;;
31594;SDS011;18200;48.726;8.892;2023-07-31T20:16:50;8.20;;;3.83;;
31594;SDS011;18200;48.726;8.892;2023-07-31T20:20:50;10.45;;;4.10;;
31594;SDS011;18200;48.726;8.892;2023-07-31T20:24:50;8.15;;;3.90;;
31594;SDS011;18200;48.726;8.892;2023-07-31T20:28:51;8.38;;;3.75;;
31594;SDS011;18200;48.726;8.892;2023-07-31T20:32:51;9.15;;;3.58;;
31594;SDS011;18200;48.726;8.892;2023-07-31T20:36:51;9.38;;;4.00;;
31594;SDS011;18200;48.726;8.892;2023-07-31T20:40:52;13.07;;;4.60;;
31594;SDS011;18200;48.726;8.892;2023-07-31T20:44:54;7.35;;;4.22;;
31594;SDS011;18200;48.726;8.892;2023-07-31T20:48:54;9.60;;;4.72;;
31594;SDS011;18200;48.726;8.892;2023-07-31T20:52:55;13.50;;;4.50;;
31594;SDS011;18200;48.726;8.892;2023-07-31T20:56:55;7.38;;;4.28;;
31594;SDS011;18200;48.726;8.892;2023-07-31T21:00:58;7.50;;;4.25;;
31594;SDS011;18200;48.726;8.892;2023-07-31T21:04:59;8.90;;;4.28;;
31594;SDS011;18200;48.726;8.892;2023-07-31T21:08:59;9.95;;;4.07;;
31594;SDS011;18200;48.726;8.892;2023-07-31T21:12:59;8.50;;;3.85;;
31594;SDS011;18200;48.726;8.892;2023-07-31T21:17:00;12.63;;;4.10;;
31594;SDS011;18200;48.726;8.892;2023-07-31T21:21:00;11.30;;;4.38;;
31594;SDS011;18200;48.726;8.892;2023-07-31T21:25:00;9.88;;;4.38;;
31594;SDS011;18200;48.726;8.892;2023-07-31T21:29:01;12.75;;;4.25;;
31594;SDS011;18200;48.726;8.892;2023-07-31T21:33:01;8.95;;;4.05;;
31594;SDS011;18200;48.726;8.892;2023-07-31T21:37:02;9.93;;;4.25;;
31594;SDS011;18200;48.726;8.892;2023-07-31T21:41:03;8.57;;;4.10;;
31594;SDS011;18200;48.726;8.892;2023-07-31T21:45:04;14.73;;;5.10;;
31594;SDS011;18200;48.726;8.892;2023-07-31T21:49:05;7.32;;;4.22;;
31594;SDS011;18200;48.726;8.892;2023-07-31T21:53:05;8.57;;;4.82;;
31594;SDS011;18200;48.726;8.892;2023-07-31T21:57:06;11.95;;;4.88;;
31594;SDS011;18200;48.726;8.892;2023-07-31T22:01:06;8.55;;;4.43;;
31594;SDS011;18200;48.726;8.892;2023-07-31T22:05:06;9.52;;;5.03;;
31594;SDS011;18200;48.726;8.892;2023-07-31T22:09:07;8.70;;;3.92;;
31594;SDS011;18200;48.726;8.892;2023-07-31T22:13:07;11.05;;;4.28;;
31594;SDS011;18200;48.726;8.892;2023-07-31T22:17:08;9.48;;;4.53;;
31594;SDS011;18200;48.726;8.892;2023-07-31T22:21:08;10.25;;;4.00;;
31594;SDS011;18200;48.726;8.892;2023-07-31T22:25:08;9.13;;;4.10;;
31594;SDS011;18200;48.726;8.892;2023-07-31T22:29:12;9.20;;;4.63;;
31594;SDS011;18200;48.726;8.892;2023-07-31T22:33:12;11.93;;;4.47;;
31594;SDS011;18200;48.726;8.892;2023-07-31T22:37:12;11.93;;;4.75;;
31594;SDS011;18200;48.726;8.892;2023-07-31T22:41:13;7.50;;;3.88;;
31594;SDS011;18200;48.726;8.892;2023-07-31T22:45:13;7.63;;;3.95;;
31594;SDS011;18200;48.726;8.892;2023-07-31T22:49:14;8.50;;;4.30;;
31594;SDS011;18200;48.726;8.892;2023-07-31T22:53:14;9.43;;;4.25;;
31594;SDS011;18200;48.726;8.892;2023-07-31T22:57:14;9.68;;;3.75;;
31594;SDS011;18200;48.726;8.892;2023-07-31T23:01:14;15.93;;;4.45;;
31594;SDS011;18200;48.726;8.892;2023-07-31T23:05:17;11.32;;;4.57;;
31594;SDS011;18200;48.726;8.892;2023-07-31T23:09:17;7.60;;;3.97;;
31594;SDS011;18200;48.726;8.892;2023-07-31T23:13:18;9.63;;;4.80;;
31594;SDS011;18200;48.726;8.892;2023-07-31T23:17:19;13.07;;;4.22;;
31594;SDS011;18200;48.726;8.892;2023-07-31T23:21:19;7.20;;;4.15;;
31594;SDS011;18200;48.726;8.892;2023-07-31T23:25:19;7.53;;;3.92;;
31594;SDS011;18200;48.726;8.892;2023-07-31T23:29:20;8.23;;;3.78;;
31594;SDS011;18200;48.726;8.892;2023-07-31T23:33:21;8.20;;;4.10;;
31594;SDS011;18200;48.726;8.892;2023-07-31T23:37:21;9.93;;;4.07;;
31594;SDS011;18200;48.726;8.892;2023-07-31T23:41:22;8.07;;;3.65;;
31594;SDS011;18200;48.726;8.892;2023-07-31T23:45:22;8.45;;;4.20;;
31594;SDS011;18200;48.726;8.892;2023-07-31T23:49:22;7.55;;;4.38;;
31594;SDS011;18200;48.726;8.892;2023-07-31T23:53:23;9.93;;;3.92;;
31594;SDS011;18200;48.726;8.892;2023-07-31T23:57:24;9.77;;;4.38;;
